Armada Township, Michigan
Current Conditions -  °F | °C
As of 9:04 PM on Friday 28 Nov 2014 (Local Time) from KMTC Reporting Station
Broken Clouds Broken Clouds  
Wind Chill: 17°   Ceiling: 7500
Heat Index: 27°   Visibility: 10mi
Dew Point: 27°   Wind: 10mph
Humidity: 100%   Direction: 190°S
Pressure: 30.1"   Gusts: NA
Location:  42.8463°N, 82.9201°W
Report Text: KMTC 290204Z AUTO 19009KT 10SM FEW013 SCT055 BKN075 M03/M03 A3010 RMK AO2
Loading
Personal Weather Stations






























Interactive Weather Map New forecast layout! Learn more

10-Day Weather Forecast

Advertisements
Track Severe Weather on mobile